| Date | Time | Temp. (oF) | Dew Point (oF) | Rel. Hum. (%) | Press. (in.) | Wind Dir. | Wind Speed (mph) | Hourly Rainfall (in.) |
|
|---|---|---|---|---|---|---|---|---|---|
| 1 | 07/14 | 00:00 | 75 | 74 | 97 | 29.97 | SE | 1 | 0.00 |
| 2 | 07/13 | 23:00 | 77 | 74 | 91 | 29.98 | E | 2 | 0.00 |
| 3 | 07/13 | 22:00 | 79 | 74 | 86 | 29.97 | NNE | 4 | 0.00 |
| 4 | 07/13 | 21:00 | 80 | 76 | 89 | 29.93 | S | 5 | 0.00 |
| 5 | 07/13 | 20:00 | 83 | 76 | 82 | 29.95 | E | 3 | 0.00 |
| 6 | 07/13 | 19:00 | 84 | 77 | 80 | 29.94 | E | 3 | 0.00 |
| 7 | 07/13 | 18:00 | 85 | 77 | 79 | 29.92 | S | 5 | 0.00 |
| 8 | 07/13 | 17:00 | 85 | 76 | 76 | 29.93 | S | 3 | 0.00 |
| 9 | 07/13 | 16:00 | 84 | 77 | 82 | 29.95 | S | 7 | 0.00 |
| 10 | 07/13 | 15:00 | 85 | 78 | 80 | 29.94 | S | 3 | 0.00 |
| 11 | 07/13 | 14:00 | 86 | 78 | 78 | 29.96 | ENE | 4 | 0.00 |
| 12 | 07/13 | 13:00 | 83 | 77 | 85 | 29.99 | E | 2 | 0.00 |
| 13 | 07/13 | 12:00 | 79 | 75 | 90 | 30.02 | NNW | 3 | 0.00 |
| 14 | 07/13 | 11:00 | 76 | 74 | 96 | 30.04 | NNE | 4 | 0.00 |
| 15 | 07/13 | 10:00 | 74 | 73 | 99 | 30.03 | ESE | 2 | 0.00 |
| 16 | 07/13 | 09:00 | 72 | 72 | 100 | 30.04 | SSE | 2 | 0.00 |
| 17 | 07/13 | 08:00 | 71 | 70 | 99 | 30.03 | E | 4 | 0.00 |
| 18 | 07/13 | 07:00 | 70 | 69 | 98 | 30.01 | E | 3 | 0.00 |
| 19 | 07/13 | 06:00 | 70 | 68 | 96 | 29.99 | E | 2 | 0.00 |
| 20 | 07/13 | 05:00 | 71 | 69 | 95 | 29.99 | NE | 1 | 0.00 |
| 21 | 07/13 | 04:00 | 72 | 70 | 94 | 29.99 | E | 0 | 0.00 |
| 22 | 07/13 | 03:00 | 73 | 70 | 93 | 30.01 | ENE | 1 | 0.00 |
| 23 | 07/13 | 02:00 | 75 | 72 | 91 | 30.01 | E | 3 | 0.00 |
| 24 | 07/13 | 01:00 | 77 | 74 | 91 | 30.02 | ESE | 2 | 0.00 |